createdAt,value
2022-08-28T11:17:41.019Z,5.07
2022-08-28T11:20:25.558Z,4.97
2022-08-28T11:23:05.051Z,4.28
2022-08-28T11:25:45.458Z,4.97
2022-08-28T11:28:31.060Z,4.63
2022-08-28T11:31:08.085Z,5.03
2022-08-28T11:33:44.039Z,5.50
2022-08-28T11:36:12.971Z,4.93
2022-08-28T11:39:12.035Z,6.85
2022-08-28T11:42:06.020Z,5.15
2022-08-28T11:44:43.706Z,4.90
2022-08-28T11:47:42.052Z,6.07
2022-08-28T11:50:23.564Z,5.70
2022-08-28T11:53:00.036Z,6.75
2022-08-28T11:55:45.059Z,5.60
2022-08-28T11:58:51.039Z,6.28
2022-08-28T12:01:36.046Z,4.80
2022-08-28T12:04:12.341Z,5.03
2022-08-28T12:06:52.027Z,4.28
2022-08-28T12:09:39.734Z,3.72
2022-08-28T12:12:33.034Z,4.18
2022-08-28T12:15:02.537Z,3.75
2022-08-28T12:17:52.999Z,3.60
2022-08-28T12:20:45.684Z,3.60
2022-08-28T12:23:46.025Z,3.85
2022-08-28T12:26:29.077Z,4.50
2022-08-28T12:29:00.321Z,4.13
2022-08-28T12:32:22.002Z,4.25
2022-08-28T12:35:04.062Z,4.43
2022-08-28T12:37:39.472Z,3.40
2022-08-28T12:40:44.100Z,2.95
2022-08-28T12:43:19.008Z,3.00
2022-08-28T12:46:19.073Z,3.90
2022-08-28T12:48:50.370Z,6.65
2022-08-28T12:51:30.024Z,2.42
2022-08-28T12:54:02.974Z,2.15
2022-08-28T12:56:41.009Z,2.30
2022-08-28T12:59:27.468Z,2.72
2022-08-28T13:02:01.098Z,4.40
2022-08-28T13:04:45.025Z,1.98
2022-08-28T13:07:15.603Z,2.20
2022-08-28T13:10:04.000Z,3.00
2022-08-28T13:12:56.662Z,2.05
2022-08-28T13:16:02.748Z,5.00
2022-08-28T13:18:50.009Z,4.13
2022-08-28T13:21:33.378Z,6.47
2022-08-28T13:24:23.596Z,1.83
2022-08-28T13:27:14.007Z,2.85
2022-08-28T13:29:57.133Z,2.15
2022-08-28T13:32:34.021Z,7.18
2022-08-28T13:35:25.577Z,2.00
2022-08-28T13:38:05.025Z,2.28
2022-08-28T13:40:58.391Z,1.75
2022-08-28T13:43:35.024Z,2.00
2022-08-28T13:48:40.968Z,2.00
2022-08-28T13:51:21.158Z,2.47
2022-08-28T13:53:49.082Z,3.90
2022-08-28T13:56:23.026Z,1.42
2022-08-28T13:58:57.453Z,1.40
2022-08-28T14:01:52.086Z,1.55
2022-08-28T14:04:18.826Z,2.08
2022-08-28T14:06:52.175Z,1.90
2022-08-28T14:09:19.365Z,2.17
2022-08-28T14:11:55.984Z,1.90
2022-08-28T14:14:28.976Z,4.25
2022-08-28T14:17:03.128Z,2.25
2022-08-28T14:19:37.001Z,2.03
2022-08-28T14:22:11.015Z,2.00
2022-08-28T14:24:43.993Z,2.63
2022-08-28T14:27:10.805Z,2.53
2022-08-28T14:29:38.243Z,2.53
2022-08-28T14:32:12.027Z,4.00
2022-08-28T14:34:44.974Z,3.50
2022-08-28T14:37:11.765Z,4.07
2022-08-28T14:39:45.140Z,3.58
2022-08-28T14:42:13.044Z,3.53
2022-08-28T14:44:47.013Z,3.75
2022-08-28T14:47:20.030Z,4.43
2022-08-28T14:49:53.138Z,3.22
2022-08-28T14:52:19.969Z,6.38
2022-08-28T14:54:53.017Z,8.40
2022-08-28T14:57:27.005Z,7.00
2022-08-28T14:59:53.716Z,4.85
2022-08-28T15:02:27.043Z,4.30
2022-08-28T15:04:54.251Z,4.40
2022-08-28T15:07:28.982Z,14.15
2022-08-28T15:09:55.713Z,7.63
2022-08-28T15:12:29.012Z,6.10
2022-08-28T15:14:57.180Z,5.82
2022-08-28T15:17:36.992Z,5.28
2022-08-28T15:20:12.399Z,4.40
2022-08-28T15:22:45.986Z,3.92
2022-08-28T15:25:12.751Z,4.20
2022-08-28T15:27:46.024Z,5.20
2022-08-28T15:30:12.877Z,4.45
2022-08-28T15:32:48.966Z,3.95
2022-08-28T15:35:16.474Z,5.63
2022-08-28T15:37:50.069Z,4.75
2022-08-28T15:40:36.085Z,4.30
2022-08-28T15:43:09.024Z,4.15
2022-08-28T15:45:37.655Z,5.63
2022-08-28T15:48:04.508Z,6.15
2022-08-28T15:50:37.963Z,4.75
2022-08-28T15:53:06.170Z,3.20
2022-08-28T15:55:40.963Z,4.85
2022-08-28T15:58:14.532Z,3.00
2022-08-28T16:00:49.025Z,2.08
2022-08-28T16:03:21.974Z,2.10
2022-08-28T16:05:54.956Z,3.53
2022-08-28T16:08:21.749Z,2.95
2022-08-28T16:10:50.133Z,3.17
2022-08-28T16:13:23.973Z,2.80
2022-08-28T16:16:11.023Z,2.90
2022-08-28T16:18:38.109Z,3.67
2022-08-28T16:21:05.623Z,3.78
2022-08-28T16:23:39.989Z,2.80
2022-08-28T16:26:08.207Z,2.78
2022-08-28T16:28:41.979Z,3.20
2022-08-28T16:31:19.139Z,3.78
2022-08-28T16:33:53.979Z,3.50
2022-08-28T16:36:26.963Z,3.50
2022-08-28T16:39:03.498Z,3.47
2022-08-28T16:41:38.007Z,3.88
2022-08-28T16:44:05.561Z,5.65
2022-08-28T16:46:39.048Z,3.97
2022-08-28T16:49:05.829Z,6.95
2022-08-28T16:51:38.985Z,3.22
2022-08-28T16:54:06.967Z,4.20
2022-08-28T16:56:40.953Z,4.22
2022-08-28T16:59:10.562Z,6.32
2022-08-28T17:01:45.061Z,4.15
2022-08-28T17:04:18.968Z,3.47
2022-08-28T17:06:52.018Z,4.18
2022-08-28T17:09:20.963Z,4.00
2022-08-28T17:11:57.637Z,4.78
2022-08-28T17:14:32.975Z,4.40
2022-08-28T17:17:20.014Z,4.10
2022-08-28T17:19:46.761Z,4.40
2022-08-28T17:22:38.954Z,5.45
2022-08-28T17:25:13.540Z,4.68
2022-08-28T17:27:48.054Z,3.50
2022-08-28T17:30:15.599Z,3.58
2022-08-28T17:32:48.972Z,3.63
2022-08-28T17:35:16.062Z,4.50
2022-08-28T17:37:50.979Z,4.45
2022-08-28T17:40:18.044Z,3.25
2022-08-28T17:42:51.953Z,3.95
2022-08-28T17:45:18.691Z,4.07
2022-08-28T17:47:45.423Z,3.83
2022-08-28T17:50:18.981Z,3.72
2022-08-28T17:52:51.954Z,3.97
2022-08-28T17:55:25.960Z,3.20
2022-08-28T17:57:52.736Z,4.63
2022-08-28T18:00:25.971Z,4.65
2022-08-28T18:02:53.748Z,4.28
2022-08-28T18:05:26.963Z,4.28
2022-08-28T18:07:53.974Z,4.32
2022-08-28T18:10:27.985Z,3.90
2022-08-28T18:12:54.668Z,6.60
2022-08-28T18:15:22.228Z,4.30
2022-08-28T18:17:56.971Z,4.35
2022-08-28T18:20:30.959Z,4.47
2022-08-28T18:22:57.761Z,4.22
2022-08-28T18:25:51.203Z,4.55
2022-08-28T18:28:28.957Z,10.95
2022-08-28T18:30:55.786Z,5.10
2022-08-28T18:33:30.938Z,5.82
2022-08-28T18:35:58.270Z,4.90
2022-08-28T18:38:34.974Z,4.30
2022-08-28T18:41:06.846Z,9.75
2022-08-28T18:43:39.977Z,3.65
2022-08-28T18:46:09.276Z,5.35
2022-08-28T18:48:44.986Z,6.65
2022-08-28T18:51:12.628Z,4.32
2022-08-28T18:53:42.597Z,6.28
2022-08-28T18:56:16.957Z,7.97
2022-08-28T18:58:44.271Z,4.97
2022-08-28T19:01:18.073Z,6.22
2022-08-28T19:03:45.073Z,5.00
2022-08-28T19:06:20.013Z,5.78
2022-08-28T19:08:46.856Z,11.10
2022-08-28T19:11:21.012Z,7.40
2022-08-28T19:13:54.222Z,5.88
2022-08-28T19:16:27.988Z,5.60
2022-08-28T19:19:02.992Z,5.50
2022-08-28T19:21:37.960Z,5.90
2022-08-28T19:24:05.274Z,5.38
2022-08-28T19:26:32.164Z,5.80
2022-08-28T19:29:04.961Z,8.00
2022-08-28T19:31:40.021Z,6.10
2022-08-28T19:34:11.337Z,6.70
2022-08-28T19:36:44.955Z,5.68
2022-08-28T19:39:12.281Z,7.30
2022-08-28T19:41:45.948Z,6.65
2022-08-28T19:44:12.638Z,7.63
2022-08-28T19:46:46.001Z,7.95
2022-08-28T19:49:18.954Z,9.57
2022-08-28T19:51:45.714Z,10.10
2022-08-28T19:54:21.044Z,7.30
2022-08-28T19:56:53.938Z,7.32
2022-08-28T19:59:25.157Z,8.05
2022-08-28T20:01:59.959Z,7.00
2022-08-28T20:04:32.930Z,7.63
2022-08-28T20:07:00.733Z,7.38
2022-08-28T20:09:34.947Z,7.28
2022-08-28T20:12:08.930Z,10.65
2022-08-28T20:14:35.645Z,6.88
2022-08-28T20:17:15.934Z,8.82
2022-08-28T20:19:59.704Z,10.80
2022-08-28T20:22:35.945Z,9.18
2022-08-28T20:25:07.045Z,11.60
2022-08-28T20:27:34.112Z,16.02
2022-08-28T20:30:11.152Z,8.82
2022-08-28T20:32:44.914Z,13.20
2022-08-28T20:35:22.100Z,9.25
2022-08-28T20:37:51.321Z,12.63
2022-08-28T20:40:27.983Z,11.10
2022-08-28T20:42:54.965Z,10.48
2022-08-28T20:45:22.117Z,10.25
2022-08-28T20:47:54.950Z,10.52
2022-08-28T20:50:21.729Z,10.90
2022-08-28T20:52:54.985Z,10.52
2022-08-28T20:55:21.710Z,13.48
2022-08-28T20:57:54.943Z,9.05
2022-08-28T21:00:21.627Z,12.52
2022-08-28T21:02:54.917Z,10.45
2022-08-28T21:05:28.066Z,11.20
2022-08-28T21:08:01.913Z,14.75
2022-08-28T21:10:28.661Z,11.43
2022-08-28T21:13:01.949Z,10.65
2022-08-28T21:15:29.345Z,12.13
2022-08-28T21:18:09.983Z,13.55
2022-08-28T21:20:45.937Z,14.45
2022-08-28T21:23:12.856Z,15.43
2022-08-28T21:25:48.918Z,12.90
2022-08-28T21:28:21.925Z,16.50
2022-08-28T21:30:54.928Z,13.90
2022-08-28T21:33:27.959Z,13.60
2022-08-28T21:35:54.589Z,11.73
2022-08-28T21:38:27.965Z,11.02
2022-08-28T21:41:00.926Z,10.98
2022-08-28T21:43:27.580Z,11.23
2022-08-28T21:46:07.069Z,11.55
2022-08-28T21:48:37.332Z,18.08
2022-08-28T21:51:15.942Z,14.80
2022-08-28T21:53:42.804Z,11.98
2022-08-28T21:56:16.930Z,14.60
2022-08-28T21:58:50.073Z,12.95
2022-08-28T22:01:17.861Z,10.10
2022-08-28T22:03:51.909Z,10.73
2022-08-28T22:06:20.907Z,12.70
2022-08-28T22:08:54.915Z,11.07
2022-08-28T22:11:25.124Z,13.57
2022-08-28T22:14:02.915Z,10.85
2022-08-28T22:16:35.930Z,10.02
2022-08-28T22:19:09.294Z,9.50
2022-08-28T22:22:00.989Z,11.23
2022-08-28T22:24:27.680Z,12.38
2022-08-28T22:27:00.931Z,10.77
2022-08-28T22:29:27.674Z,15.63
2022-08-28T22:32:00.979Z,14.38
2022-08-28T22:34:27.742Z,12.02
2022-08-28T22:37:00.932Z,16.65
2022-08-28T22:39:27.663Z,10.75
2022-08-28T22:41:54.467Z,14.35
2022-08-28T22:44:27.916Z,11.48
2022-08-28T22:46:54.660Z,16.80
2022-08-28T22:49:27.887Z,8.48
2022-08-28T22:52:00.902Z,8.77
2022-08-28T22:54:33.895Z,7.70
2022-08-28T22:57:06.931Z,9.38
2022-08-28T22:59:41.080Z,8.02
2022-08-28T23:02:08.325Z,7.82
2022-08-28T23:04:41.935Z,7.00
2022-08-28T23:07:09.192Z,7.03
2022-08-28T23:09:42.924Z,6.65
2022-08-28T23:12:09.879Z,7.32
2022-08-28T23:14:47.781Z,8.05
2022-08-28T23:17:22.025Z,15.48
2022-08-28T23:19:55.893Z,9.90
2022-08-28T23:22:23.536Z,13.30
2022-08-28T23:24:56.958Z,8.98
2022-08-28T23:27:38.960Z,16.42
2022-08-28T23:30:14.994Z,11.77
2022-08-28T23:32:41.935Z,12.65
2022-08-28T23:35:18.072Z,9.95
2022-08-28T23:37:48.687Z,11.73
2022-08-28T23:40:28.950Z,7.68
2022-08-28T23:42:57.075Z,7.53
2022-08-28T23:45:23.997Z,8.85
2022-08-28T23:47:57.897Z,9.18
2022-08-28T23:50:26.547Z,7.93
2022-08-28T23:53:00.914Z,9.77
2022-08-28T23:55:28.887Z,8.95
2022-08-28T23:58:02.062Z,8.82
